Home > Products > Valid Products > MTR

000
SAUS41 KCAR 280116
MTR40B
METAR K40B 280116Z AUTO VRB03KT M02/M10 A2975 RMK AO1 SLP091
     T10211097 51029 P0000





000
SAUS41 KCAR 280057
MTRGNR
METAR KGNR 280056Z AUTO 33008KT M01/M06 A2970 RMK AO1 SLP073
T10061061





000
SAUS41 KCAR 280016
MTR40B
METAR K40B 280016Z AUTO VRB02KT M01/M08 A2973 RMK AO1 SLP082
     T10111081 10053 21010 53026





000
SAUS41 KCAR 272357
MTRGNR
METAR KGNR 272356Z AUTO 00000KT 00/M05 A2968 RMK AO1 SLP068
T00001050 10033 20000 53016





000
SAUS41 KCAR 272357
MTRGNR
METAR KGNR 272356Z AUTO 00000KT 00/M05 A2968 RMK AO1 SLP068
T00001050 10033 20000 53016





000
SAUS41 KCAR 272319
MTR40B
METAR K40B 272319Z AUTO VRB03KT 01/M08 A2969 RMK AO1 SLP068
     T00081082 53015





000
SAUS41 KCAR 272319
MTR40B
METAR K40B 272319Z AUTO VRB03KT 01/M08 A2969 RMK AO1 SLP068
     T00081082 53015





000
SAUS41 KCAR 272258
MTRGNR
METAR KGNR 272256Z AUTO 32006KT 02/M06 A2965 RMK AO1 SLP057
T00171056





000
SAUS41 KCAR 272258
MTRGNR
METAR KGNR 272256Z AUTO 32006KT 02/M06 A2965 RMK AO1 SLP057
T00171056





000
SAUS41 KCAR 272216
MTR40B
METAR K40B 272216Z AUTO VRB03KT 03/M11 A2966 RMK AO1 SLP061
     T00311107 53011





000
SAUS41 KCAR 272157
MTRGNR
METAR KGNR 272156Z AUTO 33008KT 02/M06 A2964 RMK AO1 SLP054
T00221056





000
SAUS41 KCAR 272119
MTR40B
METAR K40B 272119Z AUTO VRB06G13KT 04/M10 A2964 RMK AO1 SLP054
     T00421102 55001





000
SAUS41 KCAR 272057
MTRGNR
METAR KGNR 272056Z AUTO 34008KT 02/M05 A2964 RMK AO1 SLP051
T00221050 53007





000
SAUS41 KCAR 272021
MTR40B
METAR K40B 272021Z AUTO 00000KT 05/M08 A2964 RMK AO1 SLP054
     T00461081 55001





000
SAUS41 KCAR 271957
MTRGNR
METAR KGNR 271956Z AUTO 31006G16KT 03/M04 A2963 RMK AO1 SLP049
T00281044





000
SAUS41 KCAR 271916
MTR40B
METAR K40B 271916Z AUTO VRB03KT 03/M05 A2963 RMK AO1 SLP052
     T00301054 58002





000
SAUS41 KCAR 271916
MTR40B
METAR K40B 271916Z AUTO VRB03KT 03/M05 A2963 RMK AO1 SLP052
     T00301054 58002





000
SAUS41 KCAR 271858
MTRGNR
METAR KGNR 271856Z AUTO 32009KT 03/M04 A2961 RMK AO1 SLP043
T00281039





000
SAUS41 KCAR 271819
MTR40B
METAR K40B 271819Z AUTO VRB05KT 03/M05 A2965 RMK AO1 SLP057
     T00321049 10037 20004 55003 60001





000
SAUS41 KCAR 271757
MTRGNR
METAR KGNR 271756Z AUTO VRB06KT 03/M03 A2961 RMK AO1 SLP043
T00331033 10033 20000 56008





000
SAUS41 KCAR 271757
MTRGNR
METAR KGNR 271756Z AUTO VRB06KT 03/M03 A2961 RMK AO1 SLP043
T00331033 10033 20000 56008





000
SAUS41 KCAR 271719
MTR40B
METAR K40B 271719Z AUTO VRB02KT 04/M04 A2964 RMK AO1 SLP056
     T00351039 55006





000
SAUS41 KCAR 271719
MTR40B
METAR K40B 271719Z AUTO VRB02KT 04/M04 A2964 RMK AO1 SLP056
     T00351039 55006





000
SAUS41 KCAR 271657
MTRGNR
METAR KGNR 271656Z AUTO 33007KT 270V360 03/M04 A2963 RMK AO1 SLP048
T00281039





000
SAUS41 KCAR 271657
MTRGNR
METAR KGNR 271656Z AUTO 33007KT 270V360 03/M04 A2963 RMK AO1 SLP048
T00281039





000
SAUS41 KCAR 271616
MTR40B
METAR K40B 271616Z AUTO 00000KT 03/M03 A2964 RMK AO1 SLP054
     T00261035 58008





000
SAUS41 KCAR 271616
MTR40B
METAR K40B 271616Z AUTO 00000KT 03/M03 A2964 RMK AO1 SLP054
     T00261035 58008





000
SAUS41 KCAR 271558
MTRGNR
METAR KGNR 271556Z AUTO 32009KT 02/M02 A2962 RMK AO1 SLP046
T00171022





000
SAUS41 KCAR 271521
MTR40B
METAR K40B 271521Z AUTO VRB05KT 02/M04 A2966 RMK AO1 SLP062
     T00251039 53005 60001





000
SAUS41 KCAR 271457
MTRGNR
METAR KGNR 271456Z AUTO 32008KT 02/M01 A2964 RMK AO1 SLP052
T00171011 50007





000
SAUS41 KCAR 271457
MTRGNR
METAR KGNR 271456Z AUTO 32008KT 02/M01 A2964 RMK AO1 SLP052
T00171011 50007





000
SAUS41 KCAR 271421
MTR40B
METAR K40B 271421Z AUTO 00000KT 01/M02 A2966 RMK AO1 SLP062
     T00151024 50008





000
SAUS41 KCAR 271421
MTR40B
METAR K40B 271421Z AUTO 00000KT 01/M02 A2966 RMK AO1 SLP062
     T00151024 50008





000
SAUS41 KCAR 271357
MTRGNR
METAR KGNR 271356Z AUTO 31005KT 01/M01 A2965 RMK AO1 SLP055
T00061011





000
SAUS41 KCAR 271357
MTRGNR
METAR KGNR 271356Z AUTO 31005KT 01/M01 A2965 RMK AO1 SLP055
T00061011





000
SAUS41 KCAR 271316
MTR40B
METAR K40B 271316Z AUTO VRB03KT 01/M02 A2966 RMK AO1 SLP063
     T00121015 53012 P0001





000
SAUS41 KCAR 271257
MTRGNR
METAR KGNR 271256Z AUTO 31008KT 00/M01 A2965 RMK AO1 SLP057
T00001011





000
SAUS41 KCAR 271257
MTRGNR
METAR KGNR 271256Z AUTO 31008KT 00/M01 A2965 RMK AO1 SLP057
T00001011





000
SAUS41 KCAR 271221
MTR40B
METAR K40B 271221Z AUTO 00000KT 00/00 A2964 RMK AO1 SLP057
     T00041004 10004 21010 51014 P0000 60000 70001





000
SAUS41 KCAR 271157
MTRGNR
METAR KGNR 271156Z AUTO VRB05KT 00/M01 A2962 RMK AO1 SLP044 70022
T00001011 10000 20000 50011





000
SAUS41 KCAR 271121
MTR40B
METAR K40B 271121Z AUTO 00000KT 00/M01 A2963 RMK AO1 SLP052
     T10011008 53005





000
SAUS41 KCAR 271058
MTRGNR
METAR KGNR 271056Z AUTO VRB04KT 00/M01 A2962 RMK AO1 SLP045
T00001006





000
SAUS41 KCAR 271058
MTRGNR
METAR KGNR 271056Z AUTO VRB04KT 00/M01 A2962 RMK AO1 SLP045
T00001006





000
SAUS41 KCAR 271016
MTR40B
METAR K40B 271016Z AUTO 00000KT 00/M01 A2962 RMK AO1 SLP049
     T10021009 51010





000
SAUS41 KCAR 270957
MTRGNR
METAR KGNR 270956Z AUTO 32006KT 00/M01 A2960 RMK AO1 SLP039
T00001006





000
SAUS41 KCAR 270919
MTR40B
METAR K40B 270919Z AUTO 00000KT 00/M01 A2961 RMK AO1 SLP043
     T00001010 55002





000
SAUS41 KCAR 270858
MTRGNR
METAR KGNR 270856Z AUTO 32008KT 00/M01 A2958 RMK AO1 SLP033
T00001006 55006





000
SAUS41 KCAR 270858
MTRGNR
METAR KGNR 270856Z AUTO 32008KT 00/M01 A2958 RMK AO1 SLP033
T00001006 55006





000
SAUS41 KCAR 270819
MTR40B
METAR K40B 270819Z AUTO VRB02KT M01/M02 A2961 RMK AO1 SLP045
     T10091022 56004





000
SAUS41 KCAR 270757
MTRGNR
METAR KGNR 270756Z AUTO 33007KT 00/M01 A2958 RMK AO1 SLP030
T00001006





000
SAUS41 KCAR 270757
MTRGNR
METAR KGNR 270756Z AUTO 33007KT 00/M01 A2958 RMK AO1 SLP030
T00001006





000
SAUS41 KCAR 270716
MTR40B
METAR K40B 270716Z AUTO 00000KT 00/M02 A2959 RMK AO1 SLP038
     T00011017 58011





000
SAUS41 KCAR 270716
MTR40B
METAR K40B 270716Z AUTO 00000KT 00/M02 A2959 RMK AO1 SLP038
     T00011017 58011





000
SAUS41 KCAR 270657
MTRGNR
METAR KGNR 270656Z AUTO 33008KT 00/M01 A2959 RMK AO1 SLP031
T00001006





000
SAUS41 KCAR 270657
MTRGNR
METAR KGNR 270656Z AUTO 33008KT 00/M01 A2959 RMK AO1 SLP031
T00001006





000
SAUS41 KCAR 270621
MTR40B
METAR K40B 270621Z AUTO 00000KT 00/M02 A2961 RMK AO1 SLP044
     T00021017 10017 21001 58002 P0000 60001





000
SAUS41 KCAR 270621
MTR40B
METAR K40B 270621Z AUTO 00000KT 00/M02 A2961 RMK AO1 SLP044
     T00021017 10017 21001 58002 P0000 60001





000
SAUS41 KCAR 270557
MTRGNR
METAR KGNR 270556Z AUTO 33006KT 00/M01 A2960 RMK AO1 SLP036 60005
T00001006 10022 20000 56012





000
SAUS41 KCAR 270557
MTRGNR
METAR KGNR 270556Z AUTO 33006KT 00/M01 A2960 RMK AO1 SLP036 60005
T00001006 10022 20000 56012





000
SAUS41 KCAR 270521
MTR40B
METAR K40B 270521Z AUTO 00000KT 00/M02 A2962 RMK AO1 SLP046
     T00001018 400531004 56008





000
SAUS41 KCAR 270521
MTR40B
METAR K40B 270521Z AUTO 00000KT 00/M02 A2962 RMK AO1 SLP046
     T00001018 400531004 56008





000
SAUS41 KCAR 270458
MTRGNR
METAR KGNR 270456Z AUTO 33008KT 00/M01 A2961 RMK AO1 SLP039
T00001006 401001011





000
SAUS41 KCAR 270458
MTRGNR
METAR KGNR 270456Z AUTO 33008KT 00/M01 A2961 RMK AO1 SLP039
T00001006 401001011





000
SAUS41 KCAR 270416
MTR40B
METAR K40B 270416Z AUTO VRB03KT 01/M02 A2963 RMK AO1 SLP048
     T00061018 55009 P0000





000
SAUS41 KCAR 270416
MTR40B
METAR K40B 270416Z AUTO VRB03KT 01/M02 A2963 RMK AO1 SLP048
     T00061018 55009 P0000





000
SAUS41 KCAR 270357
MTRGNR
METAR KGNR 270356Z AUTO 32008KT 01/00 A2960 RMK AO1 SLP036 P0001
T00060000





000
SAUS41 KCAR 270321
MTR40B
METAR K40B 270321Z AUTO 00000KT 00/M02 A2962 RMK AO1 SLP044
     T00051016 58005





000
SAUS41 KCAR 270258
MTRGNR
METAR KGNR 270256Z AUTO 00000KT 01/01 A2964 RMK AO1 SLP051 P0001
60004 T00060006 51005





000
SAUS41 KCAR 270221
MTR40B
METAR K40B 270221Z AUTO 00000KT 01/M02 A2965 RMK AO1 SLP054
     T00081016 50005





000
SAUS41 KCAR 270221
MTR40B
METAR K40B 270221Z AUTO 00000KT 01/M02 A2965 RMK AO1 SLP054
     T00081016 50005





000
SAUS41 KCAR 270157
MTRGNR
METAR KGNR 270156Z AUTO 33010G18KT 01/01 A2963 RMK AO1 SLP048 P0001
T00110006





000
SAUS41 KCAR 270116
MTR40B
METAR K40B 270116Z AUTO 00000KT 01/M01 A2966 RMK AO1 SLP057
     T00111014 53008





000
SAUS41 KCAR 270058
MTRGNR
METAR KGNR 270056Z AUTO VRB03KT 02/02 A2964 RMK AO1 SLP052 P0002
T00170017





000
SAUS41 KCAR 270058
MTRGNR
METAR KGNR 270056Z AUTO VRB03KT 02/02 A2964 RMK AO1 SLP052 P0002
T00170017





000
SAUS41 KCAR 270021
MTR40B
METAR K40B 270021Z AUTO 00000KT 02/M01 A2963 RMK AO1 SLP048
     T00161012 10048 20016 54001





000
SAUS41 KCAR 270021
MTR40B
METAR K40B 270021Z AUTO 00000KT 02/M01 A2963 RMK AO1 SLP048
     T00161012 10048 20016 54001





000
SAUS41 KCAR 262357
MTRGNR
METAR KGNR 262356Z AUTO 00000KT 02/02 A2962 RMK AO1 SLP047 P0002
60017 T00170017 10094 20017 55007





000
SAUS41 KCAR 262357
MTRGNR
METAR KGNR 262356Z AUTO 00000KT 02/02 A2962 RMK AO1 SLP047 P0002
60017 T00170017 10094 20017 55007





000
SAUS41 KCAR 262321
MTR40B
METAR K40B 262321Z AUTO 00000KT 02/M01 A2963 RMK AO1 SLP048
     T00191012 54001





000
SAUS41 KCAR 262258
MTRGNR
METAR KGNR 262256Z AUTO 00000KT 02/02 A2962 RMK AO1 SLP046 P0005
T00220022





000
SAUS41 KCAR 262258
MTRGNR
METAR KGNR 262256Z AUTO 00000KT 02/02 A2962 RMK AO1 SLP046 P0005
T00220022





000
SAUS41 KCAR 262216
MTR40B
METAR K40B 262216Z AUTO 20007G11KT 02/M01 A2963 RMK AO1 SLP048
     T00251010 56011





000
SAUS41 KCAR 262157
MTRGNR
METAR KGNR 262156Z AUTO 00000KT 03/03 A2964 RMK AO1 SLP053 P0005
T00280028





000
SAUS41 KCAR 262121
MTR40B
METAR K40B 262121Z AUTO VRB05KT 03/M02 A2963 RMK AO1 SLP048
     T00341022 58009





000
SAUS41 KCAR 262057
MTRGNR
METAR KGNR 262056Z AUTO 00000KT 03/03 A2964 RMK AO1 SLP054 P0005
60005 T00330028 56009





000
SAUS41 KCAR 262057
MTRGNR
METAR KGNR 262056Z AUTO 00000KT 03/03 A2964 RMK AO1 SLP054 P0005
60005 T00330028 56009





000
SAUS41 KCAR 262021
MTR40B
METAR K40B 262021Z AUTO VRB06G16KT 04/M03 A2964 RMK AO1 SLP050
     T00421028 58011





000
SAUS41 KCAR 262021
MTR40B
METAR K40B 262021Z AUTO VRB06G16KT 04/M03 A2964 RMK AO1 SLP050
     T00421028 58011





000
SAUS41 KCAR 261957
MTRGNR
METAR KGNR 261956Z AUTO VRB03KT 05/01 A2966 RMK AO1 SLP057 T00500011





000
SAUS41 KCAR 261916
MTR40B
METAR K40B 261916Z AUTO VRB04G13KT 04/M03 A2967 RMK AO1 SLP061
     T00441027 50001





000
SAUS41 KCAR 261916
MTR40B
METAR K40B 261916Z AUTO VRB04G13KT 04/M03 A2967 RMK AO1 SLP061
     T00441027 50001





000
SAUS41 KCAR 261858
MTRGNR
METAR KGNR 261856Z AUTO 08/M01 A2966 RMK AO1 SLP056 T00781011





000
SAUS41 KCAR 261858
MTRGNR
METAR KGNR 261856Z AUTO 08/M01 A2966 RMK AO1 SLP056 T00781011





000
SAUS41 KCAR 261822
MTR40B
METAR K40B 261822Z AUTO 23006G19KT 150V020 05/M03 A2966 RMK AO1
     SLP059 T00481028 10053 20031 56006





000
SAUS41 KCAR 261822
MTR40B
METAR K40B 261822Z AUTO 23006G19KT 150V020 05/M03 A2966 RMK AO1
     SLP059 T00481028 10053 20031 56006





000
SAUS41 KCAR 261757
MTRGNR
METAR KGNR 261756Z AUTO VRB04KT 09/M02 A2967 RMK AO1 SLP061
T00891017 10100 21006 55019





000
SAUS41 KCAR 261757
MTRGNR
METAR KGNR 261756Z AUTO VRB04KT 09/M02 A2967 RMK AO1 SLP061
T00891017 10100 21006 55019





000
SAUS41 KCAR 261721
MTR40B
METAR K40B 261721Z AUTO VRB05G20KT 05/M03 A2967 RMK AO1 SLP064
     T00481026 55005





000
SAUS41 KCAR 261657
MTRGNR
METAR KGNR 261656Z AUTO VRB03KT 10/M02 A2967 RMK AO1 SLP060
T01001017





000
SAUS41 KCAR 261657
MTRGNR
METAR KGNR 261656Z AUTO VRB03KT 10/M02 A2967 RMK AO1 SLP060
T01001017





000
SAUS41 KCAR 261616
MTR40B
METAR K40B 261616Z AUTO 23008G26KT 180V280 05/M03 A2966 RMK AO1 PK
     WND 29026/1605 SLP061 T00501027 58011





000
SAUS41 KCAR 261616
MTR40B
METAR K40B 261616Z AUTO 23008G26KT 180V280 05/M03 A2966 RMK AO1 PK
     WND 29026/1605 SLP061 T00501027 58011





000
SAUS41 KCAR 261558
MTRGNR
METAR KGNR 261556Z AUTO VRB04KT 08/00 A2969 RMK AO1 SLP066 T00780000





000
SAUS41 KCAR 261521
MTR40B
METAR K40B 261521Z AUTO 21010G25KT 130V270 04/M02 A2968 RMK AO1 PK
     WND 24028/1428 SLP069 T00441016 58002





000
SAUS41 KCAR 261457
MTRGNR
METAR KGNR 261456Z AUTO VRB03KT 04/00 A2973 RMK AO1 SLP084 T00390000
58012





000
SAUS41 KCAR 261421
MTR40B
METAR K40B 261421Z AUTO 21010G22KT 150V260 04/00 A2969 RMK AO1
     SLP071 T00370000 50001





000
SAUS41 KCAR 261421
MTR40B
METAR K40B 261421Z AUTO 21010G22KT 150V260 04/00 A2969 RMK AO1
     SLP071 T00370000 50001





000
SAUS41 KCAR 261357
MTRGNR
METAR KGNR 261356Z AUTO 13003KT 02/00 A2975 RMK AO1 SLP090 T00220000





000
SAUS41 KCAR 261357
MTRGNR
METAR KGNR 261356Z AUTO 13003KT 02/00 A2975 RMK AO1 SLP090 T00220000





000
SAUS41 KCAR 261316
MTR40B
METAR K40B 261316Z AUTO VRB06G18KT 04/01 A2970 RMK AO1 SLP073
     T00350010 55001





000
SAUS41 KCAR 261316
MTR40B
METAR K40B 261316Z AUTO VRB06G18KT 04/01 A2970 RMK AO1 SLP073
     T00350010 55001





000
SAUS41 KCAR 261257
MTRGNR
METAR KGNR 261256Z AUTO 11005KT 01/M01 A2976 RMK AO1 SLP094
T00061006





000
SAUS41 KCAR 261257
MTRGNR
METAR KGNR 261256Z AUTO 11005KT 01/M01 A2976 RMK AO1 SLP094
T00061006





000
SAUS41 KCAR 261221
MTR40B
METAR K40B 261221Z AUTO 22006G20KT 170V280 03/01 A2969 RMK AO1
     SLP070 T00320011 10043 21004 58006 60001 70002





000
SAUS41 KCAR 261221
MTR40B
METAR K40B 261221Z AUTO 22006G20KT 170V280 03/01 A2969 RMK AO1
     SLP070 T00320011 10043 21004 58006 60001 70002





000
SAUS41 KCAR 261157
MTRGNR
METAR KGNR 261156Z AUTO VRB03KT M01/M01 A2977 RMK AO1 SLP097 70002
T10061011 11006 21011 56013





000
SAUS41 KCAR 261157
MTRGNR
METAR KGNR 261156Z AUTO VRB03KT M01/M01 A2977 RMK AO1 SLP097 70002
T10061011 11006 21011 56013





000
SAUS41 KCAR 261119
MTR40B
METAR K40B 261119Z AUTO 20014G21KT 04/01 A2968 RMK AO1 SLP068
     T00410007 58013





000
SAUS41 KCAR 261058
MTRGNR
METAR KGNR 261056Z AUTO 14006KT M01/M02 A2977 RMK AO1 SLP098
T10111017





000
SAUS41 KCAR 261058
MTRGNR
METAR KGNR 261056Z AUTO 14006KT M01/M02 A2977 RMK AO1 SLP098
T10111017





000
SAUS41 KCAR 261016
MTR40B
METAR K40B 261016Z AUTO 22007G15KT 180V270 04/01 A2970 RMK AO1
     SLP073 T00350007 56021 P0000





000
SAUS41 KCAR 260957
MTRGNR
METAR KGNR 260956Z AUTO 16005KT M01/M02 A2978 RMK AO1 SLP100
T10061022





000
SAUS41 KCAR 260921
MTR40B
METAR K40B 260921Z AUTO 18011KT 01/M01 A2970 RMK AO1 SLP076
     T00131008 57026 60001





000
SAUS41 KCAR 260858
MTRGNR
METAR KGNR 260856Z AUTO 17005KT M01/M02 A2981 RMK AO1 SLP108
T10061022 58016





000
SAUS41 KCAR 260858
MTRGNR
METAR KGNR 260856Z AUTO 17005KT M01/M02 A2981 RMK AO1 SLP108
T10061022 58016





000
SAUS41 KCAR 260821
MTR40B
METAR K40B 260821Z AUTO 17008G14KT 00/M02 A2972 RMK AO1 SLP081
     T00021018 58028 P0000





000
SAUS41 KCAR 260821
MTR40B
METAR K40B 260821Z AUTO 17008G14KT 00/M02 A2972 RMK AO1 SLP081
     T00021018 58028 P0000





000
SAUS41 KCAR 260757
MTRGNR
METAR KGNR 260756Z AUTO 15003KT M01/M03 A2983 RMK AO1 SLP115
T10061028





000
SAUS41 KCAR 260716
MTR40B
METAR K40B 260716Z AUTO 19008G13KT 00/M02 A2976 RMK AO1 SLP093
     T10011024 56029 P0000





000
SAUS41 KCAR 260658
MTRGNR
METAR KGNR 260656Z AUTO VRB05KT M01/M02 A2984 RMK AO1 SLP119
T10111022





000
SAUS41 KCAR 260658
MTRGNR
METAR KGNR 260656Z AUTO VRB05KT M01/M02 A2984 RMK AO1 SLP119
T10111022





000
SAUS41 KCAR 260619
MTR40B
METAR K40B 260619Z AUTO 17006KT 00/M03 A2978 RMK AO1 SLP100
     T10021031 10034 21004 57030 60000





000
SAUS41 KCAR 260557
MTRGNR
METAR KGNR 260556Z AUTO 18009G15KT M01/M02 A2986 RMK AO1 SLP127
60002 T10111022 10011 21022 56034





000
SAUS41 KCAR 260557
MTRGNR
METAR KGNR 260556Z AUTO 18009G15KT M01/M02 A2986 RMK AO1 SLP127
60002 T10111022 10011 21022 56034





000
SAUS41 KCAR 260521
MTR40B
METAR K40B 260521Z AUTO 17008G14KT 120V200 00/M04 A2980 RMK AO1
     SLP107 T10011037 400671205 57035





000
SAUS41 KCAR 260459
MTRGNR
METAR KGNR 260456Z AUTO 17011G17KT M01/M03 A2989 RMK AO1 SLP137
T10111028 400611089





000
SAUS41 KCAR 260459
MTRGNR
METAR KGNR 260456Z AUTO 17011G17KT M01/M03 A2989 RMK AO1 SLP137
T10111028 400611089





000
SAUS41 KCAR 260416
MTR40B
METAR K40B 260416Z AUTO 16008G24KT 100V200 00/M05 A2985 RMK AO1
     SLP121 T00031047 56033





000
SAUS41 KCAR 260416
MTR40B
METAR K40B 260416Z AUTO 16008G24KT 100V200 00/M05 A2985 RMK AO1
     SLP121 T00031047 56033





000
SAUS41 KCAR 260357
MTRGNR
METAR KGNR 260356Z AUTO 16007KT M02/M03 A2991 RMK AO1 SLP147 P0002
T10221033





000
SAUS41 KCAR 260321
MTR40B
METAR K40B 260321Z AUTO 15009G19KT 080V200 02/M09 A2988 RMK AO1
     SLP131 T00171086 58037 60000





000
SAUS41 KCAR 260321
MTR40B
METAR K40B 260321Z AUTO 15009G19KT 080V200 02/M09 A2988 RMK AO1
     SLP131 T00171086 58037 60000





000
SAUS41 KCAR 260258
MTRGNR
METAR KGNR 260256Z AUTO 17009G17KT M01/M05 A2996 RMK AO1 SLP164
T10111050 58028





000
SAUS41 KCAR 260258
MTRGNR
METAR KGNR 260256Z AUTO 17009G17KT M01/M05 A2996 RMK AO1 SLP164
T10111050 58028





000
SAUS41 KCAR 260221
MTR40B
METAR K40B 260221Z AUTO 16008G18KT 120V190 02/M10 A2991 RMK AO1
     SLP143 T00191099 58037





000
SAUS41 KCAR 260221
MTR40B
METAR K40B 260221Z AUTO 16008G18KT 120V190 02/M10 A2991 RMK AO1
     SLP143 T00191099 58037





000
SAUS41 KCAR 260157
MTRGNR
METAR KGNR 260156Z AUTO 16009G16KT M01/M08 A3000 RMK AO1 SLP179
T10061083





000
SAUS41 KCAR 260116
MTR40B
METAR K40B 260116Z AUTO VRB06G12KT 02/M11 A2995 RMK AO1 SLP157
     T00231113 58033 P0000





000
SAUS41 KCAR 260116
MTR40B
METAR K40B 260116Z AUTO VRB06G12KT 02/M11 A2995 RMK AO1 SLP157
     T00231113 58033 P0000





000
SAUS41 KCAR 260058
MTRGNR
METAR KGNR 260056Z AUTO 17009G20KT 00/M09 A3003 RMK AO1 SLP189
T00001094





000
SAUS41 KCAR 260021
MTR40B
METAR K40B 260021Z AUTO VRB05KT 03/M11 A2999 RMK AO1 SLP170
     T00331110 10067 21003 58028 P0000 60000





000
SAUS41 KCAR 260021
MTR40B
METAR K40B 260021Z AUTO VRB05KT 03/M11 A2999 RMK AO1 SLP170
     T00331110 10067 21003 58028 P0000 60000





000
SAUS41 KCAR 252357
MTRGNR
METAR KGNR 252356Z AUTO 15007G16KT 110V180 01/M09 A3005 RMK AO1
SLP195 T00111094 10061 20011 58017





000
SAUS41 KCAR 252357
MTRGNR
METAR KGNR 252356Z AUTO 15007G16KT 110V180 01/M09 A3005 RMK AO1
SLP195 T00111094 10061 20011 58017





000
SAUS41 KCAR 252321
MTR40B
METAR K40B 252321Z AUTO VRB03KT 03/M12 A3002 RMK AO1 SLP184
     T00281117 58024





000
SAUS41 KCAR 252321
MTR40B
METAR K40B 252321Z AUTO VRB03KT 03/M12 A3002 RMK AO1 SLP184
     T00281117 58024





000
SAUS41 KCAR 252258
MTRGNR
METAR KGNR 252256Z AUTO 17006G15KT 02/M09 A3007 RMK AO1 SLP205
T00221094





000
SAUS41 KCAR 252258
MTRGNR
METAR KGNR 252256Z AUTO 17006G15KT 02/M09 A3007 RMK AO1 SLP205
T00221094





000
SAUS41 KCAR 252216
MTR40B
METAR K40B 252216Z AUTO VRB06G14KT 05/M11 A3005 RMK AO1 SLP198
     T00491113 56027





000
SAUS41 KCAR 252157
MTRGNR
METAR KGNR 252156Z AUTO 17008G15KT 04/M11 A3009 RMK AO1 SLP209
T00391106





000
SAUS41 KCAR 252121
MTR40B
METAR K40B 252121Z AUTO VRB06G11KT 06/M13 A3007 RMK AO1 SLP208
     T00601129 56034





000
SAUS41 KCAR 252057
MTRGNR
METAR KGNR 252056Z AUTO 16006KT 05/M11 A3010 RMK AO1 SLP212
T00501111 56028





000
SAUS41 KCAR 252021
MTR40B
METAR K40B 252021Z AUTO 18009G13KT 05/M11 A3010 RMK AO1 SLP219
     T00551106 57037





000
SAUS41 KCAR 251957
MTRGNR
METAR KGNR 251956Z AUTO VRB06KT 05/M12 A3012 RMK AO1 SLP219
T00501122





000
SAUS41 KCAR 251916
MTR40B
METAR K40B 251916Z AUTO VRB06G12KT 06/M12 A3014 RMK AO1 SLP234
     T00611123 58032





000
SAUS41 KCAR 251916
MTR40B
METAR K40B 251916Z AUTO VRB06G12KT 06/M12 A3014 RMK AO1 SLP234
     T00611123 58032





000
SAUS41 KCAR 251857
MTRGNR
METAR KGNR 251856Z AUTO VRB05KT 06/M14 A3016 RMK AO1 SLP230
T00611139





000
SAUS41 KCAR 251857
MTRGNR
METAR KGNR 251856Z AUTO VRB05KT 06/M14 A3016 RMK AO1 SLP230
T00611139





000
SAUS41 KCAR 251819
MTR40B
METAR K40B 251819Z AUTO VRB03KT 06/M14 A3018 RMK AO1 SLP252
     T00561135 10056 21093 57028





000
SAUS41 KCAR 251819
MTR40B
METAR K40B 251819Z AUTO VRB03KT 06/M14 A3018 RMK AO1 SLP252
     T00561135 10056 21093 57028





000
SAUS41 KCAR 251757
MTRGNR
METAR KGNR 251756Z AUTO 18007KT 04/M13 A3019 RMK AO1 SLP243
T00441133 10050 21050 58025





000
SAUS41 KCAR 251757
MTRGNR
METAR KGNR 251756Z AUTO 18007KT 04/M13 A3019 RMK AO1 SLP243
T00441133 10050 21050 58025





000
SAUS41 KCAR 251721
MTR40B
METAR K40B 251721Z AUTO VRB05KT 04/M14 A3021 RMK AO1 SLP265
     T00441140 57024





000
SAUS41 KCAR 251721
MTR40B
METAR K40B 251721Z AUTO VRB05KT 04/M14 A3021 RMK AO1 SLP265
     T00441140 57024





000
SAUS41 KCAR 251657
MTRGNR
METAR KGNR 251656Z AUTO VRB03KT 04/M12 A3022 RMK AO1 SLP255
T00391122





000
SAUS41 KCAR 251657
MTRGNR
METAR KGNR 251656Z AUTO VRB03KT 04/M12 A3022 RMK AO1 SLP255
T00391122





000
SAUS41 KCAR 251616
MTR40B
METAR K40B 251616Z AUTO VRB06G10KT 03/M12 A3023 RMK AO1 SLP275
     T00341123 58020





000
SAUS41 KCAR 251558
MTRGNR
METAR KGNR 251556Z AUTO 00000KT 01/M12 A3025 RMK AO1 SLP264
T00111117





000
SAUS41 KCAR 251558
MTRGNR
METAR KGNR 251556Z AUTO 00000KT 01/M12 A3025 RMK AO1 SLP264
T00111117





000
SAUS41 KCAR 251521
MTR40B
METAR K40B 251521Z AUTO VRB03KT 02/M12 A3027 RMK AO1 SLP288
     T00201123 58008





000
SAUS41 KCAR 251457
MTRGNR
METAR KGNR 251456Z AUTO 35008KT 00/M12 A3027 RMK AO1 SLP270
T00001122 58001





000
SAUS41 KCAR 251421
MTR40B
METAR K40B 251421Z AUTO VRB03KT M01/M12 A3029 RMK AO1 SLP295
     T10151115 50004





000
SAUS41 KCAR 251358
MTRGNR
METAR KGNR 251356Z AUTO 33009KT M02/M12 A3028 RMK AO1 SLP276
T10171122





000
SAUS41 KCAR 251358
MTRGNR
METAR KGNR 251356Z AUTO 33009KT M02/M12 A3028 RMK AO1 SLP276
T10171122





000
SAUS41 KCAR 251316
MTR40B
METAR K40B 251316Z AUTO VRB04KT M04/M12 A3029 RMK AO1 SLP299
     T10351117 51010





000
SAUS41 KCAR 251316
MTR40B
METAR K40B 251316Z AUTO VRB04KT M04/M12 A3029 RMK AO1 SLP299
     T10351117 51010





000
SAUS41 KCAR 251257
MTRGNR
METAR KGNR 251256Z AUTO 33009KT M03/M12 A3027 RMK AO1 SLP273
T10281122





000
SAUS41 KCAR 251257
MTRGNR
METAR KGNR 251256Z AUTO 33009KT M03/M12 A3027 RMK AO1 SLP273
T10281122





000
SAUS41 KCAR 251221
MTR40B
METAR K40B 251221Z AUTO 00000KT M09/M14 A3029 RMK AO1 SLP299
     T10931142 11087 21205 52012 P0002 60003 70006





000
SAUS41 KCAR 251221
MTR40B
METAR K40B 251221Z AUTO 00000KT M09/M14 A3029 RMK AO1 SLP299
     T10931142 11087 21205 52012 P0002 60003 70006





000
SAUS41 KCAR 251158
MTRGNR
METAR KGNR 251156Z AUTO 34008KT M05/M13 A3027 RMK AO1 SLP274
T10501128 11050 21089 53010





000
SAUS41 KCAR 251158
MTRGNR
METAR KGNR 251156Z AUTO 34008KT M05/M13 A3027 RMK AO1 SLP274
T10501128 11050 21089 53010





000
SAUS41 KCAR 251119
MTR40B
METAR K40B 251119Z AUTO 00000KT M18/M20 A3027 RMK AO1 SLP292
     T11781199 52007





000
SAUS41 KCAR 251100
MTRGNR
METAR KGNR 251056Z AUTO 36005KT M07/M13 A3026 RMK AO1 SLP271
T10721133





000
SAUS41 KCAR 251016
MTR40B
METAR K40B 251016Z AUTO 00000KT M19/M21 A3026 RMK AO1 SLP286
     T11901209 52005 P0000





000
SAUS41 KCAR 251016
MTR40B
METAR K40B 251016Z AUTO 00000KT M19/M21 A3026 RMK AO1 SLP286
     T11901209 52005 P0000





000
SAUS41 KCAR 251000
MTRGNR
METAR KGNR 250956Z AUTO 02006KT M08/M13 A3024 RMK AO1 SLP262
T10831133





000
SAUS41 KCAR 251000
MTRGNR
METAR KGNR 250956Z AUTO 02006KT M08/M13 A3024 RMK AO1 SLP262
T10831133





000
SAUS41 KCAR 250919
MTR40B
METAR K40B 250919Z AUTO 00000KT M17/M19 A3025 RMK AO1 SLP279
     T11731189 52004 60001





000
SAUS41 KCAR 250919
MTR40B
METAR K40B 250919Z AUTO 00000KT M17/M19 A3025 RMK AO1 SLP279
     T11731189 52004 60001





000
SAUS41 KCAR 250900
MTRGNR
METAR KGNR 250856Z AUTO 33009KT M06/M13 A3024 RMK AO1 SLP260
T10611128 53003





000
SAUS41 KCAR 250900
MTRGNR
METAR KGNR 250856Z AUTO 33009KT M06/M13 A3024 RMK AO1 SLP260
T10611128 53003





000
SAUS41 KCAR 250821
MTR40B
METAR K40B 250821Z AUTO 00000KT M16/M18 A3025 RMK AO1 SLP277
     T11581180 52004 P0000





000
SAUS41 KCAR 250821
MTR40B
METAR K40B 250821Z AUTO 00000KT M16/M18 A3025 RMK AO1 SLP277
     T11581180 52004 P0000





000
SAUS41 KCAR 250800
MTRGNR
METAR KGNR 250756Z AUTO 32009KT M06/M13 A3023 RMK AO1 SLP258
T10611128





000
SAUS41 KCAR 250800
MTRGNR
METAR KGNR 250756Z AUTO 32009KT M06/M13 A3023 RMK AO1 SLP258
T10611128





000
SAUS41 KCAR 250716
MTR40B
METAR K40B 250716Z AUTO 00000KT M14/M17 A3025 RMK AO1 SLP272
     T11451171 52002 P0000





000
SAUS41 KCAR 250716
MTR40B
METAR K40B 250716Z AUTO 00000KT M14/M17 A3025 RMK AO1 SLP272
     T11451171 52002 P0000





000
SAUS41 KCAR 250700
MTRGNR
METAR KGNR 250656Z AUTO 34007KT M07/M13 A3023 RMK AO1 SLP259
T10671133





000
SAUS41 KCAR 250700
MTRGNR
METAR KGNR 250656Z AUTO 34007KT M07/M13 A3023 RMK AO1 SLP259
T10671133





000
SAUS41 KCAR 250621
MTR40B
METAR K40B 250621Z AUTO VRB02KT M14/M17 A3024 RMK AO1 SLP268
     T11411174 11051 21145 50004 60001





000
SAUS41 KCAR 250621
MTR40B
METAR K40B 250621Z AUTO VRB02KT M14/M17 A3024 RMK AO1 SLP268
     T11411174 11051 21145 50004 60001





000
SAUS41 KCAR 250600
MTRGNR
METAR KGNR 250556Z AUTO 33009KT M07/M13 A3023 RMK AO1 SLP259
T10671133 11033 21067 53005





000
SAUS41 KCAR 250600
MTRGNR
METAR KGNR 250556Z AUTO 33009KT M07/M13 A3023 RMK AO1 SLP259
T10671133 11033 21067 53005





000
SAUS41 KCAR 250519
MTR40B
METAR K40B 250519Z AUTO 00000KT M12/M16 A3024 RMK AO1 SLP266
     T11191158 400361189 50004 P0000





000
SAUS41 KCAR 250519
MTR40B
METAR K40B 250519Z AUTO 00000KT M12/M16 A3024 RMK AO1 SLP266
     T11191158 400361189 50004 P0000





000
SAUS41 KCAR 250500
MTRGNR
METAR KGNR 250456Z AUTO 33007KT M06/M14 A3022 RMK AO1 SLP257
T10611139 400111128





000
SAUS41 KCAR 250500
MTRGNR
METAR KGNR 250456Z AUTO 33007KT M06/M14 A3022 RMK AO1 SLP257
T10611139 400111128





000
SAUS41 KCAR 250416
MTR40B
METAR K40B 250416Z AUTO 00000KT M10/M15 A3024 RMK AO1 SLP264
     T10981147 52003





000
SAUS41 KCAR 250416
MTR40B
METAR K40B 250416Z AUTO 00000KT M10/M15 A3024 RMK AO1 SLP264
     T10981147 52003





000
SAUS41 KCAR 250400
MTRGNR
METAR KGNR 250356Z AUTO 33008KT M06/M14 A3022 RMK AO1 SLP258
T10561144





000
SAUS41 KCAR 250321
MTR40B
METAR K40B 250321Z AUTO 00000KT M08/M14 A3023 RMK AO1 SLP261
     T10841137 51007 60000





000
SAUS41 KCAR 250321
MTR40B
METAR K40B 250321Z AUTO 00000KT M08/M14 A3023 RMK AO1 SLP261
     T10841137 51007 60000





000
SAUS41 KCAR 250300
MTRGNR
METAR KGNR 250256Z AUTO 32007KT M05/M16 A3021 RMK AO1 SLP256
T10501161 51008





000
SAUS41 KCAR 250221
MTR40B
METAR K40B 250221Z AUTO 00000KT M08/M14 A3023 RMK AO1 SLP259
     T10841139 51015





000
SAUS41 KCAR 250200
MTRGNR
METAR KGNR 250156Z AUTO 33008KT M04/M16 A3021 RMK AO1 SLP255
T10441161





000
SAUS41 KCAR 250200
MTRGNR
METAR KGNR 250156Z AUTO 33008KT M04/M16 A3021 RMK AO1 SLP255
T10441161





    US Dept of Commerce
    National Oceanic and Atmospheric Administration
    National Weather Service
    1325 East West Highway
    Silver Spring, MD 20910
    Page Author: NWS Internet Services Team
Disclaimer
Information Quality
Credits
Glossary
Privacy Policy
Freedom of Information Act (FOIA)
About Us
Career Opportunities